sensor_id;sensor_type;location;lat;lon;timestamp;pressure;altitude;pressure_sealevel;temperature;humidity
65800;BME280;52544;48.116;11.660;2023-03-23T00:01:56;95168.97;;;10.63;61.79
65800;BME280;52544;48.116;11.660;2023-03-23T00:04:22;95170.78;;;10.63;62.31
65800;BME280;52544;48.116;11.660;2023-03-23T00:06:49;95172.16;;;10.67;61.29
65800;BME280;52544;48.116;11.660;2023-03-23T00:09:15;95160.44;;;10.69;61.17
65800;BME280;52544;48.116;11.660;2023-03-23T00:11:42;95168.41;;;10.60;62.00
65800;BME280;52544;48.116;11.660;2023-03-23T00:14:09;95166.56;;;10.70;61.44
65800;BME280;52544;48.116;11.660;2023-03-23T00:16:39;95165.88;;;10.77;61.07
65800;BME280;52544;48.116;11.660;2023-03-23T00:19:11;95170.75;;;10.72;61.28
65800;BME280;52544;48.116;11.660;2023-03-23T00:21:40;95161.28;;;10.80;61.41
65800;BME280;52544;48.116;11.660;2023-03-23T00:24:24;95159.19;;;10.73;61.65
65800;BME280;52544;48.116;11.660;2023-03-23T00:26:50;95160.56;;;10.77;61.54
65800;BME280;52544;48.116;11.660;2023-03-23T00:29:20;95163.50;;;10.74;62.10
65800;BME280;52544;48.116;11.660;2023-03-23T00:31:47;95160.59;;;10.68;62.39
65800;BME280;52544;48.116;11.660;2023-03-23T00:34:15;95163.38;;;10.76;62.16
65800;BME280;52544;48.116;11.660;2023-03-23T00:36:45;95166.88;;;10.67;63.18
65800;BME280;52544;48.116;11.660;2023-03-23T00:39:10;95156.72;;;10.62;63.85
65800;BME280;52544;48.116;11.660;2023-03-23T00:41:37;95152.94;;;10.65;63.78
65800;BME280;52544;48.116;11.660;2023-03-23T00:44:03;95156.84;;;10.61;64.55
65800;BME280;52544;48.116;11.660;2023-03-23T00:46:39;95159.78;;;10.67;63.87
65800;BME280;52544;48.116;11.660;2023-03-23T00:49:13;95160.47;;;10.60;64.26
65800;BME280;52544;48.116;11.660;2023-03-23T00:51:40;95160.47;;;10.40;65.22
65800;BME280;52544;48.116;11.660;2023-03-23T00:54:06;95156.31;;;10.47;64.94
65800;BME280;52544;48.116;11.660;2023-03-23T00:56:32;95151.59;;;10.41;65.41
65800;BME280;52544;48.116;11.660;2023-03-23T00:58:57;95154.09;;;10.43;66.19
65800;BME280;52544;48.116;11.660;2023-03-23T01:01:23;95157.16;;;10.29;68.39
65800;BME280;52544;48.116;11.660;2023-03-23T01:03:48;95149.63;;;10.34;67.71
65800;BME280;52544;48.116;11.660;2023-03-23T01:06:14;95148.66;;;10.35;67.50
65800;BME280;52544;48.116;11.660;2023-03-23T01:08:40;95143.22;;;10.36;66.97
65800;BME280;52544;48.116;11.660;2023-03-23T01:11:15;95148.50;;;10.36;68.94
65800;BME280;52544;48.116;11.660;2023-03-23T01:13:42;95146.03;;;10.25;68.60
65800;BME280;52544;48.116;11.660;2023-03-23T01:16:09;95146.13;;;10.23;69.59
65800;BME280;52544;48.116;11.660;2023-03-23T01:18:35;95143.22;;;10.26;69.18
65800;BME280;52544;48.116;11.660;2023-03-23T01:21:14;95140.72;;;10.15;70.47
65800;BME280;52544;48.116;11.660;2023-03-23T01:23:41;95137.78;;;10.09;71.36
65800;BME280;52544;48.116;11.660;2023-03-23T01:26:10;95139.72;;;10.16;70.09
65800;BME280;52544;48.116;11.660;2023-03-23T01:28:36;95136.78;;;10.19;70.17
65800;BME280;52544;48.116;11.660;2023-03-23T01:31:07;95136.09;;;10.17;70.18
65800;BME280;52544;48.116;11.660;2023-03-23T01:33:33;95141.56;;;10.25;69.00
65800;BME280;52544;48.116;11.660;2023-03-23T01:36:04;95134.03;;;10.31;68.45
65800;BME280;52544;48.116;11.660;2023-03-23T01:38:30;95135.69;;;10.32;68.42
65800;BME280;52544;48.116;11.660;2023-03-23T01:40:56;95132.94;;;10.33;68.88
65800;BME280;52544;48.116;11.660;2023-03-23T01:43:21;95135.69;;;10.32;69.54
65800;BME280;52544;48.116;11.660;2023-03-23T01:45:50;95133.47;;;10.27;70.62
65800;BME280;52544;48.116;11.660;2023-03-23T01:48:20;95133.19;;;10.20;70.20
65800;BME280;52544;48.116;11.660;2023-03-23T01:50:51;95133.47;;;10.27;69.72
65800;BME280;52544;48.116;11.660;2023-03-23T01:53:19;95132.38;;;10.30;70.28
65800;BME280;52544;48.116;11.660;2023-03-23T01:55:47;95133.88;;;10.22;70.99
65800;BME280;52544;48.116;11.660;2023-03-23T01:58:17;95131.50;;;10.19;70.50
65800;BME280;52544;48.116;11.660;2023-03-23T02:00:44;95141.81;;;10.22;71.35
65800;BME280;52544;48.116;11.660;2023-03-23T02:03:10;95128.19;;;10.08;72.70
65800;BME280;52544;48.116;11.660;2023-03-23T02:05:42;95139.31;;;10.11;71.41
65800;BME280;52544;48.116;11.660;2023-03-23T02:08:10;95144.47;;;10.03;72.14
65800;BME280;52544;48.116;11.660;2023-03-23T02:10:36;95141.09;;;10.01;72.39
65800;BME280;52544;48.116;11.660;2023-03-23T02:13:04;95142.22;;;10.08;71.63
65800;BME280;52544;48.116;11.660;2023-03-23T02:15:54;95132.63;;;10.07;72.07
65800;BME280;52544;48.116;11.660;2023-03-23T02:26:33;95129.84;;;9.99;73.05
65800;BME280;52544;48.116;11.660;2023-03-23T02:34:38;95120.91;;;9.81;74.00
65800;BME280;52544;48.116;11.660;2023-03-23T02:37:13;95126.75;;;9.74;74.93
65800;BME280;52544;48.116;11.660;2023-03-23T02:39:48;95118.69;;;9.76;75.00
65800;BME280;52544;48.116;11.660;2023-03-23T02:42:18;95123.56;;;9.81;74.55
65800;BME280;52544;48.116;11.660;2023-03-23T02:44:46;95124.38;;;9.81;74.25
65800;BME280;52544;48.116;11.660;2023-03-23T02:47:23;95117.72;;;9.77;75.17
65800;BME280;52544;48.116;11.660;2023-03-23T02:49:52;95117.00;;;9.65;76.43
65800;BME280;52544;48.116;11.660;2023-03-23T02:52:21;95119.25;;;9.70;75.18
65800;BME280;52544;48.116;11.660;2023-03-23T02:54:49;95113.53;;;9.74;75.19
65800;BME280;52544;48.116;11.660;2023-03-23T02:57:17;95109.50;;;9.70;74.51
65800;BME280;52544;48.116;11.660;2023-03-23T02:59:42;95116.19;;;9.74;74.48
65800;BME280;52544;48.116;11.660;2023-03-23T03:02:18;95118.41;;;9.69;74.99
65800;BME280;52544;48.116;11.660;2023-03-23T03:04:53;95120.22;;;9.69;75.92
65800;BME280;52544;48.116;11.660;2023-03-23T03:18:48;95113.41;;;9.66;75.35
65800;BME280;52544;48.116;11.660;2023-03-23T03:21:16;95111.84;;;9.54;75.59
65800;BME280;52544;48.116;11.660;2023-03-23T03:24:01;95118.38;;;9.50;76.66
65800;BME280;52544;48.116;11.660;2023-03-23T03:26:31;95121.56;;;9.44;76.67
65800;BME280;52544;48.116;11.660;2023-03-23T03:29:00;95121.13;;;9.39;76.80
65800;BME280;52544;48.116;11.660;2023-03-23T03:31:30;95113.88;;;9.31;77.63
65800;BME280;52544;48.116;11.660;2023-03-23T03:33:57;95109.94;;;9.16;77.89
65800;BME280;52544;48.116;11.660;2023-03-23T03:36:28;95117.88;;;9.25;77.71
65800;BME280;52544;48.116;11.660;2023-03-23T03:39:00;95110.94;;;9.24;78.65
65800;BME280;52544;48.116;11.660;2023-03-23T03:41:28;95106.88;;;9.20;78.60
65800;BME280;52544;48.116;11.660;2023-03-23T03:43:54;95107.16;;;9.17;78.57
65800;BME280;52544;48.116;11.660;2023-03-23T03:46:19;95114.53;;;9.14;78.43
65800;BME280;52544;48.116;11.660;2023-03-23T03:48:45;95109.78;;;9.17;78.14
65800;BME280;52544;48.116;11.660;2023-03-23T03:51:10;95119.09;;;9.21;77.79
65800;BME280;52544;48.116;11.660;2023-03-23T03:53:35;95120.50;;;9.25;77.62
65800;BME280;52544;48.116;11.660;2023-03-23T03:56:01;95121.66;;;9.33;76.70
65800;BME280;52544;48.116;11.660;2023-03-23T03:58:27;95124.47;;;9.50;75.53
65800;BME280;52544;48.116;11.660;2023-03-23T04:01:00;95131.44;;;9.51;75.26
65800;BME280;52544;48.116;11.660;2023-03-23T04:03:26;95131.16;;;9.55;75.11
65800;BME280;52544;48.116;11.660;2023-03-23T04:05:53;95126.88;;;9.63;74.73
65800;BME280;52544;48.116;11.660;2023-03-23T04:08:23;95130.59;;;9.51;75.64
65800;BME280;52544;48.116;11.660;2023-03-23T04:10:49;95146.50;;;9.61;75.44
65800;BME280;52544;48.116;11.660;2023-03-23T04:13:15;95144.25;;;9.66;74.95
65800;BME280;52544;48.116;11.660;2023-03-23T04:15:41;95141.47;;;9.67;74.35
65800;BME280;52544;48.116;11.660;2023-03-23T04:18:06;95133.56;;;9.67;74.37
65800;BME280;52544;48.116;11.660;2023-03-23T04:20:32;95131.22;;;9.74;74.01
65800;BME280;52544;48.116;11.660;2023-03-23T04:23:00;95130.94;;;9.77;73.73
65800;BME280;52544;48.116;11.660;2023-03-23T04:25:25;95140.66;;;9.76;74.01
65800;BME280;52544;48.116;11.660;2023-03-23T04:27:52;95143.84;;;9.70;75.19
65800;BME280;52544;48.116;11.660;2023-03-23T04:30:22;95149.81;;;9.72;74.89
65800;BME280;52544;48.116;11.660;2023-03-23T04:32:49;95146.50;;;9.61;76.24
65800;BME280;52544;48.116;11.660;2023-03-23T04:35:22;95149.38;;;9.58;76.60
65800;BME280;52544;48.116;11.660;2023-03-23T04:37:48;95151.59;;;9.52;76.24
65800;BME280;52544;48.116;11.660;2023-03-23T04:40:14;95152.69;;;9.50;76.30
65800;BME280;52544;48.116;11.660;2023-03-23T04:42:41;95160.19;;;9.35;77.04
65800;BME280;52544;48.116;11.660;2023-03-23T04:45:11;95152.81;;;9.39;77.08
65800;BME280;52544;48.116;11.660;2023-03-23T04:47:38;95153.66;;;9.39;76.80
65800;BME280;52544;48.116;11.660;2023-03-23T04:50:11;95153.41;;;9.52;76.01
65800;BME280;52544;48.116;11.660;2023-03-23T04:52:38;95150.88;;;9.50;75.60
65800;BME280;52544;48.116;11.660;2023-03-23T04:55:07;95148.41;;;9.59;75.38
65800;BME280;52544;48.116;11.660;2023-03-23T04:57:34;95152.34;;;9.64;75.35
65800;BME280;52544;48.116;11.660;2023-03-23T05:00:01;95148.41;;;9.59;76.15
65800;BME280;52544;48.116;11.660;2023-03-23T05:02:30;95162.03;;;9.54;76.89
65800;BME280;52544;48.116;11.660;2023-03-23T05:04:56;95153.94;;;9.46;78.79
65800;BME280;52544;48.116;11.660;2023-03-23T05:07:23;95160.50;;;9.51;77.57
65800;BME280;52544;48.116;11.660;2023-03-23T05:09:49;95160.06;;;9.46;77.54
65800;BME280;52544;48.116;11.660;2023-03-23T05:12:15;95158.25;;;9.47;76.89
65800;BME280;52544;48.116;11.660;2023-03-23T05:14:42;95161.59;;;9.49;76.81
65800;BME280;52544;48.116;11.660;2023-03-23T05:17:08;95157.00;;;9.51;76.87
65800;BME280;52544;48.116;11.660;2023-03-23T05:19:34;95157.31;;;9.58;76.16
65800;BME280;52544;48.116;11.660;2023-03-23T05:22:00;95154.97;;;9.64;75.48
65800;BME280;52544;48.116;11.660;2023-03-23T05:24:32;95153.59;;;9.70;74.94
65800;BME280;52544;48.116;11.660;2023-03-23T05:26:59;95157.31;;;9.67;75.53
65800;BME280;52544;48.116;11.660;2023-03-23T05:29:25;95168.88;;;9.66;76.59
65800;BME280;52544;48.116;11.660;2023-03-23T05:31:52;95171.53;;;9.66;77.07
65800;BME280;52544;48.116;11.660;2023-03-23T05:34:18;95170.13;;;9.62;77.57
65800;BME280;52544;48.116;11.660;2023-03-23T05:36:44;95179.03;;;9.61;78.75
65800;BME280;52544;48.116;11.660;2023-03-23T05:39:13;95179.84;;;9.62;78.02
65800;BME280;52544;48.116;11.660;2023-03-23T05:41:39;95185.97;;;9.72;76.27
65800;BME280;52544;48.116;11.660;2023-03-23T05:44:05;95189.63;;;9.81;75.00
65800;BME280;52544;48.116;11.660;2023-03-23T05:46:53;95188.78;;;9.80;74.97
65800;BME280;52544;48.116;11.660;2023-03-23T05:49:19;95190.44;;;9.71;77.94
65800;BME280;52544;48.116;11.660;2023-03-23T05:51:45;95193.50;;;9.76;77.28
65800;BME280;52544;48.116;11.660;2023-03-23T05:54:15;95192.00;;;9.84;74.94
65800;BME280;52544;48.116;11.660;2023-03-23T05:56:42;95189.34;;;9.84;75.79
65800;BME280;52544;48.116;11.660;2023-03-23T05:59:07;95170.19;;;9.91;75.49
65800;BME280;52544;48.116;11.660;2023-03-23T06:01:33;95169.91;;;9.94;74.75
65800;BME280;52544;48.116;11.660;2023-03-23T06:03:59;95158.22;;;9.97;75.06
65800;BME280;52544;48.116;11.660;2023-03-23T06:06:25;95148.06;;;9.92;75.40
65800;BME280;52544;48.116;11.660;2023-03-23T06:08:51;95139.16;;;9.84;75.84
65800;BME280;52544;48.116;11.660;2023-03-23T06:11:17;95140.81;;;9.75;76.04
65800;BME280;52544;48.116;11.660;2023-03-23T06:13:44;95146.22;;;9.73;76.20
65800;BME280;52544;48.116;11.660;2023-03-23T06:16:10;95142.31;;;9.68;75.95
65800;BME280;52544;48.116;11.660;2023-03-23T06:18:36;95133.13;;;9.72;76.04
65800;BME280;52544;48.116;11.660;2023-03-23T06:21:06;95126.75;;;9.74;76.22
65800;BME280;52544;48.116;11.660;2023-03-23T06:23:34;95117.84;;;9.75;75.60
65800;BME280;52544;48.116;11.660;2023-03-23T06:26:02;95141.78;;;9.84;75.27
65800;BME280;52544;48.116;11.660;2023-03-23T06:28:28;95140.28;;;9.91;75.07
65800;BME280;52544;48.116;11.660;2023-03-23T06:30:54;95144.00;;;9.98;74.86
65800;BME280;52544;48.116;11.660;2023-03-23T06:33:20;95147.09;;;10.03;74.47
65800;BME280;52544;48.116;11.660;2023-03-23T06:35:46;95148.19;;;10.10;73.96
65800;BME280;52544;48.116;11.660;2023-03-23T06:38:11;95156.84;;;10.22;73.15
65800;BME280;52544;48.116;11.660;2023-03-23T06:40:37;95167.75;;;10.29;72.52
65800;BME280;52544;48.116;11.660;2023-03-23T06:43:03;95164.25;;;10.38;72.04
65800;BME280;52544;48.116;11.660;2023-03-23T06:45:30;95155.75;;;10.44;71.65
65800;BME280;52544;48.116;11.660;2023-03-23T06:47:56;95159.78;;;10.48;71.14
65800;BME280;52544;48.116;11.660;2023-03-23T06:50:22;95153.50;;;10.49;71.02
65800;BME280;52544;48.116;11.660;2023-03-23T06:52:49;95158.41;;;10.54;71.29
65800;BME280;52544;48.116;11.660;2023-03-23T06:55:16;95146.56;;;10.58;70.32
65800;BME280;52544;48.116;11.660;2023-03-23T06:57:42;95150.72;;;10.60;70.56
65800;BME280;52544;48.116;11.660;2023-03-23T07:00:09;95127.63;;;10.62;70.38
65800;BME280;52544;48.116;11.660;2023-03-23T07:02:38;95129.56;;;10.60;71.12
65800;BME280;52544;48.116;11.660;2023-03-23T07:05:04;95129.00;;;10.66;71.00
65800;BME280;52544;48.116;11.660;2023-03-23T07:07:29;95120.50;;;10.63;71.51
65800;BME280;52544;48.116;11.660;2023-03-23T07:09:55;95126.34;;;10.66;71.82
65800;BME280;52544;48.116;11.660;2023-03-23T07:12:21;95120.50;;;10.63;71.76
65800;BME280;52544;48.116;11.660;2023-03-23T07:14:47;95115.22;;;10.63;72.44
65800;BME280;52544;48.116;11.660;2023-03-23T07:17:13;95119.69;;;10.62;72.29
65800;BME280;52544;48.116;11.660;2023-03-23T07:19:39;95122.31;;;10.62;72.17
65800;BME280;52544;48.116;11.660;2023-03-23T07:22:05;95121.75;;;10.68;72.36
65800;BME280;52544;48.116;11.660;2023-03-23T07:24:32;95123.09;;;10.82;72.15
65800;BME280;52544;48.116;11.660;2023-03-23T07:26:58;95133.94;;;10.89;71.68
65800;BME280;52544;48.116;11.660;2023-03-23T07:29:23;95132.25;;;10.97;70.49
65800;BME280;52544;48.116;11.660;2023-03-23T07:31:48;95133.88;;;11.08;70.02
65800;BME280;52544;48.116;11.660;2023-03-23T07:34:14;95131.06;;;11.19;69.70
65800;BME280;52544;48.116;11.660;2023-03-23T07:36:40;95131.09;;;11.37;69.57
65800;BME280;52544;48.116;11.660;2023-03-23T07:39:05;95131.75;;;11.49;69.13
65800;BME280;52544;48.116;11.660;2023-03-23T07:41:32;95130.28;;;11.64;68.07
65800;BME280;52544;48.116;11.660;2023-03-23T07:43:57;95122.94;;;11.76;67.92
65800;BME280;52544;48.116;11.660;2023-03-23T07:46:23;95122.31;;;11.92;67.90
65800;BME280;52544;48.116;11.660;2023-03-23T07:48:48;95124.44;;;12.06;66.69
65800;BME280;52544;48.116;11.660;2023-03-23T07:51:15;95126.03;;;12.17;65.90
65800;BME280;52544;48.116;11.660;2023-03-23T07:53:42;95124.00;;;12.29;65.33
65800;BME280;52544;48.116;11.660;2023-03-23T07:56:11;95129.34;;;12.55;64.57
65800;BME280;52544;48.116;11.660;2023-03-23T07:58:37;95127.78;;;12.70;62.97
65800;BME280;52544;48.116;11.660;2023-03-23T08:01:03;95121.72;;;12.77;62.44
65800;BME280;52544;48.116;11.660;2023-03-23T08:03:29;95118.75;;;13.07;61.95
65800;BME280;52544;48.116;11.660;2023-03-23T08:05:58;95118.91;;;13.31;60.21
65800;BME280;52544;48.116;11.660;2023-03-23T08:08:25;95116.63;;;13.44;59.05
65800;BME280;52544;48.116;11.660;2023-03-23T08:10:50;95114.19;;;13.59;57.71
65800;BME280;52544;48.116;11.660;2023-03-23T08:13:16;95117.75;;;13.68;58.43
65800;BME280;52544;48.116;11.660;2023-03-23T08:15:41;95116.53;;;13.62;57.56
65800;BME280;52544;48.116;11.660;2023-03-23T08:18:08;95110.91;;;13.65;56.91
65800;BME280;52544;48.116;11.660;2023-03-23T08:20:33;95116.06;;;13.67;56.48
65800;BME280;52544;48.116;11.660;2023-03-23T08:23:07;95109.28;;;13.72;56.16
65800;BME280;52544;48.116;11.660;2023-03-23T08:25:33;95120.91;;;13.80;55.45
65800;BME280;52544;48.116;11.660;2023-03-23T08:27:59;95117.44;;;13.87;54.83
65800;BME280;52544;48.116;11.660;2023-03-23T08:30:27;95122.97;;;13.94;54.48
65800;BME280;52544;48.116;11.660;2023-03-23T08:32:54;95125.28;;;13.97;54.16
65800;BME280;52544;48.116;11.660;2023-03-23T08:35:19;95126.44;;;13.94;54.25
65800;BME280;52544;48.116;11.660;2023-03-23T08:37:45;95128.41;;;13.92;54.55
65800;BME280;52544;48.116;11.660;2023-03-23T08:40:13;95132.28;;;13.98;54.41
65800;BME280;52544;48.116;11.660;2023-03-23T08:42:43;95128.13;;;14.04;53.73
65800;BME280;52544;48.116;11.660;2023-03-23T08:45:11;95125.16;;;14.07;53.44
65800;BME280;52544;48.116;11.660;2023-03-23T08:47:38;95129.97;;;14.11;52.77
65800;BME280;52544;48.116;11.660;2023-03-23T08:50:13;95126.97;;;14.14;53.63
65800;BME280;52544;48.116;11.660;2023-03-23T08:52:39;95126.16;;;14.22;53.28
65800;BME280;52544;48.116;11.660;2023-03-23T08:55:05;95124.31;;;14.22;53.11
65800;BME280;52544;48.116;11.660;2023-03-23T08:57:31;95121.34;;;14.25;53.04
65800;BME280;52544;48.116;11.660;2023-03-23T08:59:56;95124.53;;;14.37;53.12
65800;BME280;52544;48.116;11.660;2023-03-23T09:02:26;95126.34;;;14.45;54.09
65800;BME280;52544;48.116;11.660;2023-03-23T09:04:52;95137.88;;;14.54;53.34
65800;BME280;52544;48.116;11.660;2023-03-23T09:07:18;95129.06;;;14.53;53.13
65800;BME280;52544;48.116;11.660;2023-03-23T09:09:44;95129.53;;;14.57;53.41
65800;BME280;52544;48.116;11.660;2023-03-23T09:12:10;95149.50;;;14.69;53.71
65800;BME280;52544;48.116;11.660;2023-03-23T09:14:36;95173.97;;;14.89;54.22
65800;BME280;52544;48.116;11.660;2023-03-23T09:17:02;95166.81;;;15.06;54.63
65800;BME280;52544;48.116;11.660;2023-03-23T09:19:29;95162.13;;;15.16;54.01
65800;BME280;52544;48.116;11.660;2023-03-23T09:21:55;95164.28;;;15.20;54.23
65800;BME280;52544;48.116;11.660;2023-03-23T09:24:21;95166.47;;;15.25;53.79
65800;BME280;52544;48.116;11.660;2023-03-23T09:26:47;95170.25;;;15.31;54.80
65800;BME280;52544;48.116;11.660;2023-03-23T09:29:12;95176.41;;;15.39;54.83
65800;BME280;52544;48.116;11.660;2023-03-23T09:31:39;95180.59;;;15.34;53.78
65800;BME280;52544;48.116;11.660;2023-03-23T09:34:06;95183.41;;;15.32;53.02
65800;BME280;52544;48.116;11.660;2023-03-23T09:36:31;95180.94;;;15.31;52.61
65800;BME280;52544;48.116;11.660;2023-03-23T09:38:57;95176.94;;;15.35;52.08
65800;BME280;52544;48.116;11.660;2023-03-23T09:49:25;95183.06;;;15.52;51.73
65800;BME280;52544;48.116;11.660;2023-03-23T09:52:28;95175.06;;;15.52;50.42
65800;BME280;52544;48.116;11.660;2023-03-23T09:54:56;95171.03;;;15.56;51.16
65800;BME280;52544;48.116;11.660;2023-03-23T09:57:26;95174.22;;;15.67;51.37
65800;BME280;52544;48.116;11.660;2023-03-23T10:00:04;95173.81;;;15.79;50.71
65800;BME280;52544;48.116;11.660;2023-03-23T10:07:57;95167.44;;;16.50;47.31
65800;BME280;52544;48.116;11.660;2023-03-23T10:10:36;95166.66;;;16.64;47.49
65800;BME280;52544;48.116;11.660;2023-03-23T10:13:20;95168.06;;;16.83;45.93
65800;BME280;52544;48.116;11.660;2023-03-23T10:15:49;95163.03;;;17.03;45.29
65800;BME280;52544;48.116;11.660;2023-03-23T10:18:40;95166.91;;;17.15;44.91
65800;BME280;52544;48.116;11.660;2023-03-23T10:21:13;95170.25;;;17.17;44.13
65800;BME280;52544;48.116;11.660;2023-03-23T10:23:49;95166.91;;;17.15;43.35
65800;BME280;52544;48.116;11.660;2023-03-23T10:26:45;95171.38;;;17.23;43.62
65800;BME280;52544;48.116;11.660;2023-03-23T10:29:18;95175.59;;;17.17;43.08
65800;BME280;52544;48.116;11.660;2023-03-23T10:31:52;95170.81;;;17.13;41.86
65800;BME280;52544;48.116;11.660;2023-03-23T10:34:56;95179.44;;;17.00;41.64
65800;BME280;52544;48.116;11.660;2023-03-23T10:37:28;95183.53;;;16.88;42.26
65800;BME280;52544;48.116;11.660;2023-03-23T10:39:56;95189.06;;;16.86;42.21
65800;BME280;52544;48.116;11.660;2023-03-23T10:42:32;95180.88;;;16.88;42.61
65800;BME280;52544;48.116;11.660;2023-03-23T10:45:21;95183.59;;;16.80;42.61
65800;BME280;52544;48.116;11.660;2023-03-23T10:47:55;95182.88;;;16.86;42.72
65800;BME280;52544;48.116;11.660;2023-03-23T10:50:25;95182.50;;;16.74;43.42
65800;BME280;52544;48.116;11.660;2023-03-23T10:52:53;95187.13;;;16.72;43.32
65800;BME280;52544;48.116;11.660;2023-03-23T10:55:22;95173.78;;;16.72;43.58
65800;BME280;52544;48.116;11.660;2023-03-23T10:58:06;95179.97;;;16.72;43.93
65800;BME280;52544;48.116;11.660;2023-03-23T11:00:32;95170.59;;;16.77;43.90
65800;BME280;52544;48.116;11.660;2023-03-23T11:02:59;95185.25;;;16.81;43.78
65800;BME280;52544;48.116;11.660;2023-03-23T11:07:59;95173.97;;;16.70;43.91
65800;BME280;52544;48.116;11.660;2023-03-23T11:10:37;95182.31;;;16.76;43.54
65800;BME280;52544;48.116;11.660;2023-03-23T11:13:02;95181.56;;;16.82;43.15
65800;BME280;52544;48.116;11.660;2023-03-23T11:15:36;95176.22;;;16.82;43.25
65800;BME280;52544;48.116;11.660;2023-03-23T11:20:46;95184.25;;;16.82;44.21
65800;BME280;52544;48.116;11.660;2023-03-23T11:23:33;95182.25;;;16.84;43.68
65800;BME280;52544;48.116;11.660;2023-03-23T11:26:19;95184.38;;;16.88;43.50
65800;BME280;52544;48.116;11.660;2023-03-23T11:32:09;95175.75;;;17.01;42.17
65800;BME280;52544;48.116;11.660;2023-03-23T11:34:48;95171.50;;;17.07;42.01
65800;BME280;52544;48.116;11.660;2023-03-23T11:37:24;95170.34;;;17.09;42.55
65800;BME280;52544;48.116;11.660;2023-03-23T11:39:55;95170.59;;;17.14;41.99
65800;BME280;52544;48.116;11.660;2023-03-23T11:42:34;95168.22;;;17.19;42.24
65800;BME280;52544;48.116;11.660;2023-03-23T11:45:16;95157.63;;;17.26;42.10
65800;BME280;52544;48.116;11.660;2023-03-23T11:51:20;95157.31;;;17.59;41.89
65800;BME280;52544;48.116;11.660;2023-03-23T11:54:00;95153.97;;;17.71;41.50
65800;BME280;52544;48.116;11.660;2023-03-23T11:56:41;95162.94;;;17.79;41.36
65800;BME280;52544;48.116;11.660;2023-03-23T11:59:12;95158.41;;;17.79;41.75
65800;BME280;52544;48.116;11.660;2023-03-23T12:01:51;95152.34;;;17.85;41.87
65800;BME280;52544;48.116;11.660;2023-03-23T12:17:58;95155.19;;;18.56;38.56
65800;BME280;52544;48.116;11.660;2023-03-23T12:23:24;95134.84;;;18.40;38.85
65800;BME280;52544;48.116;11.660;2023-03-23T12:26:01;95129.50;;;18.40;39.46
65800;BME280;52544;48.116;11.660;2023-03-23T12:28:59;95135.69;;;18.41;38.71
65800;BME280;52544;48.116;11.660;2023-03-23T12:32:19;95134.72;;;18.48;38.67
65800;BME280;52544;48.116;11.660;2023-03-23T12:37:52;95140.97;;;18.56;39.05
65800;BME280;52544;48.116;11.660;2023-03-23T12:43:18;95140.47;;;18.67;38.98
65800;BME280;52544;48.116;11.660;2023-03-23T12:46:09;95143.69;;;18.77;38.81
65800;BME280;52544;48.116;11.660;2023-03-23T12:48:46;95132.34;;;18.75;38.96
65800;BME280;52544;48.116;11.660;2023-03-23T12:51:19;95118.69;;;18.70;38.37
65800;BME280;52544;48.116;11.660;2023-03-23T12:59:26;95110.78;;;18.68;38.24
65800;BME280;52544;48.116;11.660;2023-03-23T13:02:10;95121.00;;;18.58;38.49
65800;BME280;52544;48.116;11.660;2023-03-23T13:04:41;95118.94;;;18.60;38.37
65800;BME280;52544;48.116;11.660;2023-03-23T13:07:19;95105.75;;;18.59;38.63
65800;BME280;52544;48.116;11.660;2023-03-23T13:10:25;95106.59;;;18.59;38.92
65800;BME280;52544;48.116;11.660;2023-03-23T13:12:45;95116.94;;;18.62;39.88
65800;BME280;52544;48.116;11.660;2023-03-23T13:18:30;95116.09;;;18.62;37.61
65800;BME280;52544;48.116;11.660;2023-03-23T13:21:16;95110.03;;;18.53;39.34
65800;BME280;52544;48.116;11.660;2023-03-23T13:24:10;95113.47;;;18.47;38.30
65800;BME280;52544;48.116;11.660;2023-03-23T13:26:40;95111.81;;;18.46;38.16
65800;BME280;52544;48.116;11.660;2023-03-23T13:29:17;95111.22;;;18.29;38.55
65800;BME280;52544;48.116;11.660;2023-03-23T13:31:44;95106.44;;;18.24;38.59
65800;BME280;52544;48.116;11.660;2023-03-23T13:34:16;95100.25;;;18.24;38.92
65800;BME280;52544;48.116;11.660;2023-03-23T13:37:01;95101.56;;;18.13;39.80
65800;BME280;52544;48.116;11.660;2023-03-23T13:39:49;95102.75;;;18.26;37.86
65800;BME280;52544;48.116;11.660;2023-03-23T13:47:26;95102.88;;;18.17;38.96
65800;BME280;52544;48.116;11.660;2023-03-23T14:06:20;95091.16;;;18.40;39.76
65800;BME280;52544;48.116;11.660;2023-03-23T14:08:52;95092.00;;;18.40;39.96
65800;BME280;52544;48.116;11.660;2023-03-23T14:11:26;95100.19;;;18.39;40.30
65800;BME280;52544;48.116;11.660;2023-03-23T14:14:02;95087.94;;;18.30;41.99
65800;BME280;52544;48.116;11.660;2023-03-23T14:16:35;95106.25;;;18.26;41.71
65800;BME280;52544;48.116;11.660;2023-03-23T14:19:04;95102.88;;;18.17;42.07
65800;BME280;52544;48.116;11.660;2023-03-23T14:21:40;95099.00;;;18.20;42.52
65800;BME280;52544;48.116;11.660;2023-03-23T14:24:12;95099.56;;;18.15;43.27
65800;BME280;52544;48.116;11.660;2023-03-23T14:26:38;95097.50;;;18.17;42.99
65800;BME280;52544;48.116;11.660;2023-03-23T14:29:04;95099.66;;;18.07;42.98
65800;BME280;52544;48.116;11.660;2023-03-23T14:31:30;95097.56;;;18.03;43.24
65800;BME280;52544;48.116;11.660;2023-03-23T14:34:02;95098.69;;;17.93;43.52
65800;BME280;52544;48.116;11.660;2023-03-23T14:36:29;95101.28;;;17.87;42.34
65800;BME280;52544;48.116;11.660;2023-03-23T14:39:25;95098.34;;;17.82;42.46
65800;BME280;52544;48.116;11.660;2023-03-23T14:41:51;95098.34;;;17.82;42.88
65800;BME280;52544;48.116;11.660;2023-03-23T14:44:22;95099.63;;;17.86;42.33
65800;BME280;52544;48.116;11.660;2023-03-23T14:46:49;95100.34;;;17.80;42.04
65800;BME280;52544;48.116;11.660;2023-03-23T14:49:18;95099.53;;;17.79;42.47
65800;BME280;52544;48.116;11.660;2023-03-23T14:51:49;95099.63;;;17.86;42.20